Weather at Portland International Airport

Public forecast

Using degrees Fahrenheit for public forecast. Weather courtesy of forecast.io.

Current aviation weather report (METAR) for Portland International Airport

Retrieved 2020/10/31 12:11 UTC (14 minutes ago):

KPDX 311211Z 00000KT 10SM BKN006 03/02 A3035

Aviation forecast (TAF) for Portland International Airport

Retrieved 2020/10/31 12:27 UTC (0 seconds ago):

TAF KPDX 311123Z 3112/0112 VRB04KT P6SM SKC FM311900 34005KT P6SM SKC